sensor_id;sensor_type;location;lat;lon;timestamp;pressure;altitude;pressure_sealevel;temperature;humidity
61018;BME280;48171;51.550;5.434;2023-02-15T00:01:09;102946.72;;;1.41;98.04
61018;BME280;48171;51.550;5.434;2023-02-15T00:03:35;102943.09;;;1.39;98.44
61018;BME280;48171;51.550;5.434;2023-02-15T00:06:01;102942.94;;;1.36;98.87
61018;BME280;48171;51.550;5.434;2023-02-15T00:08:26;102951.53;;;1.35;99.37
61018;BME280;48171;51.550;5.434;2023-02-15T00:10:52;102941.94;;;1.34;98.99
61018;BME280;48171;51.550;5.434;2023-02-15T00:13:18;102930.50;;;1.32;99.20
61018;BME280;48171;51.550;5.434;2023-02-15T00:15:43;102931.19;;;1.29;99.18
61018;BME280;48171;51.550;5.434;2023-02-15T00:18:08;102931.31;;;1.31;99.44
61018;BME280;48171;51.550;5.434;2023-02-15T00:20:34;102935.63;;;1.30;99.27
61018;BME280;48171;51.550;5.434;2023-02-15T00:23:00;102925.31;;;1.32;100.00
61018;BME280;48171;51.550;5.434;2023-02-15T00:25:25;102925.41;;;1.33;99.70
61018;BME280;48171;51.550;5.434;2023-02-15T00:27:50;102916.38;;;1.28;99.89
61018;BME280;48171;51.550;5.434;2023-02-15T00:30:16;102927.91;;;1.32;100.00
61018;BME280;48171;51.550;5.434;2023-02-15T00:32:41;102917.38;;;1.30;100.00
61018;BME280;48171;51.550;5.434;2023-02-15T00:35:06;102917.38;;;1.30;100.00
61018;BME280;48171;51.550;5.434;2023-02-15T00:37:32;102906.69;;;1.26;100.00
61018;BME280;48171;51.550;5.434;2023-02-15T00:39:57;102912.69;;;1.25;100.00
61018;BME280;48171;51.550;5.434;2023-02-15T00:42:23;102912.69;;;1.25;100.00
61018;BME280;48171;51.550;5.434;2023-02-15T00:44:48;102912.56;;;1.23;100.00
61018;BME280;48171;51.550;5.434;2023-02-15T00:47:13;102902.97;;;1.22;100.00
61018;BME280;48171;51.550;5.434;2023-02-15T00:49:39;102912.69;;;1.25;100.00
61018;BME280;48171;51.550;5.434;2023-02-15T00:52:04;102906.56;;;1.24;100.00
61018;BME280;48171;51.550;5.434;2023-02-15T00:54:29;102897.66;;;1.20;100.00
61018;BME280;48171;51.550;5.434;2023-02-15T00:56:55;102896.56;;;1.17;100.00
61018;BME280;48171;51.550;5.434;2023-02-15T00:59:20;102893.88;;;1.15;100.00
61018;BME280;48171;51.550;5.434;2023-02-15T01:01:45;102892.06;;;1.14;100.00
61018;BME280;48171;51.550;5.434;2023-02-15T01:04:10;102894.47;;;1.11;100.00
61018;BME280;48171;51.550;5.434;2023-02-15T01:06:36;102891.78;;;1.10;100.00
61018;BME280;48171;51.550;5.434;2023-02-15T01:09:01;102898.69;;;1.09;100.00
61018;BME280;48171;51.550;5.434;2023-02-15T01:11:27;102880.84;;;1.02;100.00
61018;BME280;48171;51.550;5.434;2023-02-15T01:13:55;102889.47;;;1.01;100.00
61018;BME280;48171;51.550;5.434;2023-02-15T01:16:21;102884.97;;;0.98;100.00
61018;BME280;48171;51.550;5.434;2023-02-15T01:18:47;102882.34;;;0.98;100.00
61018;BME280;48171;51.550;5.434;2023-02-15T01:21:18;102881.34;;;0.96;100.00
61018;BME280;48171;51.550;5.434;2023-02-15T01:23:44;102877.84;;;0.96;100.00
61018;BME280;48171;51.550;5.434;2023-02-15T01:26:10;102868.94;;;0.92;100.00
61018;BME280;48171;51.550;5.434;2023-02-15T01:28:35;102871.44;;;0.91;100.00
61018;BME280;48171;51.550;5.434;2023-02-15T01:31:06;102863.44;;;0.88;100.00
61018;BME280;48171;51.550;5.434;2023-02-15T01:33:31;102867.22;;;0.93;100.00
61018;BME280;48171;51.550;5.434;2023-02-15T01:35:57;102867.66;;;0.86;100.00
61018;BME280;48171;51.550;5.434;2023-02-15T01:38:23;102865.66;;;0.82;100.00
61018;BME280;48171;51.550;5.434;2023-02-15T01:40:52;102856.34;;;0.85;100.00
61018;BME280;48171;51.550;5.434;2023-02-15T01:43:18;102849.56;;;0.87;100.00
61018;BME280;48171;51.550;5.434;2023-02-15T01:45:45;102859.25;;;0.90;100.00
61018;BME280;48171;51.550;5.434;2023-02-15T01:48:20;102858.44;;;0.91;100.00
61018;BME280;48171;51.550;5.434;2023-02-15T01:50:56;102858.25;;;0.88;100.00
61018;BME280;48171;51.550;5.434;2023-02-15T01:53:33;102866.66;;;0.84;100.00
61018;BME280;48171;51.550;5.434;2023-02-15T01:56:06;102856.56;;;0.75;99.47
61018;BME280;48171;51.550;5.434;2023-02-15T01:58:33;102850.13;;;0.70;100.00
61018;BME280;48171;51.550;5.434;2023-02-15T02:01:00;102857.84;;;0.68;100.00
61018;BME280;48171;51.550;5.434;2023-02-15T02:03:42;102853.44;;;0.67;100.00
61018;BME280;48171;51.550;5.434;2023-02-15T02:06:09;102857.75;;;0.67;100.00
61018;BME280;48171;51.550;5.434;2023-02-15T02:08:35;102851.53;;;0.65;100.00
61018;BME280;48171;51.550;5.434;2023-02-15T02:11:00;102836.72;;;0.64;100.00
61018;BME280;48171;51.550;5.434;2023-02-15T02:13:25;102839.22;;;0.62;100.00
61018;BME280;48171;51.550;5.434;2023-02-15T02:16:02;102840.81;;;0.60;100.00
61018;BME280;48171;51.550;5.434;2023-02-15T02:23:56;102835.09;;;0.52;99.77
61018;BME280;48171;51.550;5.434;2023-02-15T02:26:42;102835.72;;;0.48;99.76
61018;BME280;48171;51.550;5.434;2023-02-15T02:29:25;102827.81;;;0.47;100.00
61018;BME280;48171;51.550;5.434;2023-02-15T02:32:17;102827.13;;;0.49;100.00
61018;BME280;48171;51.550;5.434;2023-02-15T02:35:41;102827.22;;;0.51;100.00
61018;BME280;48171;51.550;5.434;2023-02-15T02:38:02;102822.03;;;0.51;100.00
61018;BME280;48171;51.550;5.434;2023-02-15T02:43:33;102817.91;;;0.41;100.00
61018;BME280;48171;51.550;5.434;2023-02-15T02:46:06;102811.31;;;0.33;100.00
61018;BME280;48171;51.550;5.434;2023-02-15T02:48:35;102813.69;;;0.30;100.00
61018;BME280;48171;51.550;5.434;2023-02-15T02:51:01;102803.00;;;0.25;100.00
61018;BME280;48171;51.550;5.434;2023-02-15T02:53:29;102805.69;;;0.27;100.00
61018;BME280;48171;51.550;5.434;2023-02-15T02:55:59;102809.91;;;0.25;100.00
61018;BME280;48171;51.550;5.434;2023-02-15T02:58:35;102809.97;;;0.26;100.00
61018;BME280;48171;51.550;5.434;2023-02-15T03:01:06;102802.09;;;0.25;100.00
61018;BME280;48171;51.550;5.434;2023-02-15T03:03:38;102810.97;;;0.28;100.00
61018;BME280;48171;51.550;5.434;2023-02-15T03:06:10;102802.28;;;0.28;100.00
61018;BME280;48171;51.550;5.434;2023-02-15T03:08:39;102797.91;;;0.27;100.00
61018;BME280;48171;51.550;5.434;2023-02-15T03:11:07;102791.59;;;0.23;100.00
61018;BME280;48171;51.550;5.434;2023-02-15T03:13:33;102790.69;;;0.23;100.00
61018;BME280;48171;51.550;5.434;2023-02-15T03:16:00;102784.56;;;0.22;100.00
61018;BME280;48171;51.550;5.434;2023-02-15T03:18:52;102789.00;;;0.23;100.00
61018;BME280;48171;51.550;5.434;2023-02-15T03:21:32;102780.19;;;0.21;100.00
61018;BME280;48171;51.550;5.434;2023-02-15T03:24:14;102776.59;;;0.19;100.00
61018;BME280;48171;51.550;5.434;2023-02-15T03:26:45;102786.41;;;0.23;100.00
61018;BME280;48171;51.550;5.434;2023-02-15T03:29:11;102776.88;;;0.24;100.00
61018;BME280;48171;51.550;5.434;2023-02-15T03:31:40;102764.78;;;0.24;100.00
61018;BME280;48171;51.550;5.434;2023-02-15T03:34:11;102771.97;;;0.28;100.00
61018;BME280;48171;51.550;5.434;2023-02-15T03:39:15;102767.28;;;0.36;100.00
61018;BME280;48171;51.550;5.434;2023-02-15T03:41:54;102771.59;;;0.35;100.00
61018;BME280;48171;51.550;5.434;2023-02-15T03:44:32;102767.22;;;0.34;100.00
61018;BME280;48171;51.550;5.434;2023-02-15T03:47:06;102758.19;;;0.29;100.00
61018;BME280;48171;51.550;5.434;2023-02-15T03:49:43;102766.78;;;0.28;100.00
61018;BME280;48171;51.550;5.434;2023-02-15T03:52:11;102772.09;;;0.30;100.00
61018;BME280;48171;51.550;5.434;2023-02-15T03:54:39;102761.41;;;0.25;100.00
61018;BME280;48171;51.550;5.434;2023-02-15T03:57:11;102760.50;;;0.25;100.00
61018;BME280;48171;51.550;5.434;2023-02-15T03:59:57;102766.72;;;0.27;100.00
61018;BME280;48171;51.550;5.434;2023-02-15T04:05:13;102760.81;;;0.29;100.00
61018;BME280;48171;51.550;5.434;2023-02-15T04:07:38;102758.31;;;0.31;100.00
61018;BME280;48171;51.550;5.434;2023-02-15T04:10:04;102754.78;;;0.30;100.00
61018;BME280;48171;51.550;5.434;2023-02-15T04:12:48;102743.69;;;0.19;100.00
61018;BME280;48171;51.550;5.434;2023-02-15T04:15:13;102752.59;;;0.23;100.00
61018;BME280;48171;51.550;5.434;2023-02-15T04:17:57;102758.69;;;0.24;100.00
61018;BME280;48171;51.550;5.434;2023-02-15T04:20:22;102758.50;;;0.21;100.00
61018;BME280;48171;51.550;5.434;2023-02-15T04:23:06;102757.28;;;0.15;100.00
61018;BME280;48171;51.550;5.434;2023-02-15T04:25:51;102759.78;;;0.14;100.00
61018;BME280;48171;51.550;5.434;2023-02-15T04:28:16;102754.56;;;0.14;100.00
61018;BME280;48171;51.550;5.434;2023-02-15T04:30:41;102768.16;;;0.10;100.00
61018;BME280;48171;51.550;5.434;2023-02-15T04:33:06;102764.50;;;0.06;100.00
61018;BME280;48171;51.550;5.434;2023-02-15T04:35:32;102759.38;;;0.08;100.00
61018;BME280;48171;51.550;5.434;2023-02-15T04:37:58;102760.97;;;0.06;100.00
61018;BME280;48171;51.550;5.434;2023-02-15T04:40:23;102750.06;;;-0.02;100.00
61018;BME280;48171;51.550;5.434;2023-02-15T04:42:49;102759.06;;;0.03;100.00
61018;BME280;48171;51.550;5.434;2023-02-15T04:45:14;102755.47;;;0.01;100.00
61018;BME280;48171;51.550;5.434;2023-02-15T04:47:40;102751.66;;;-0.04;100.00
61018;BME280;48171;51.550;5.434;2023-02-15T04:50:06;102741.19;;;-0.06;100.00
61018;BME280;48171;51.550;5.434;2023-02-15T04:52:31;102738.47;;;-0.07;100.00
61018;BME280;48171;51.550;5.434;2023-02-15T04:54:57;102746.16;;;-0.09;100.00
61018;BME280;48171;51.550;5.434;2023-02-15T04:57:22;102743.44;;;-0.10;100.00
61018;BME280;48171;51.550;5.434;2023-02-15T04:59:47;102726.84;;;-0.12;100.00
61018;BME280;48171;51.550;5.434;2023-02-15T05:02:13;102723.06;;;-0.17;100.00
61018;BME280;48171;51.550;5.434;2023-02-15T05:04:38;102727.44;;;-0.16;100.00
61018;BME280;48171;51.550;5.434;2023-02-15T05:07:04;102724.84;;;-0.16;100.00
61018;BME280;48171;51.550;5.434;2023-02-15T05:09:29;102724.78;;;-0.18;100.00
61018;BME280;48171;51.550;5.434;2023-02-15T05:11:54;102723.06;;;-0.17;100.00
61018;BME280;48171;51.550;5.434;2023-02-15T05:14:20;102721.25;;;-0.18;100.00
61018;BME280;48171;51.550;5.434;2023-02-15T05:16:45;102734.06;;;-0.22;100.00
61018;BME280;48171;51.550;5.434;2023-02-15T05:19:11;102724.25;;;-0.26;100.00
61018;BME280;48171;51.550;5.434;2023-02-15T05:21:36;102715.16;;;-0.32;100.00
61018;BME280;48171;51.550;5.434;2023-02-15T05:24:02;102730.81;;;-0.31;100.00
61018;BME280;48171;51.550;5.434;2023-02-15T05:26:47;102720.91;;;-0.36;100.00
61018;BME280;48171;51.550;5.434;2023-02-15T05:29:31;102730.94;;;-0.29;100.00
61018;BME280;48171;51.550;5.434;2023-02-15T05:31:56;102728.44;;;-0.28;100.00
61018;BME280;48171;51.550;5.434;2023-02-15T05:34:21;102727.63;;;-0.27;100.00
61018;BME280;48171;51.550;5.434;2023-02-15T05:36:47;102724.25;;;-0.26;100.00
61018;BME280;48171;51.550;5.434;2023-02-15T05:39:12;102725.56;;;-0.19;100.00
61018;BME280;48171;51.550;5.434;2023-02-15T05:41:37;102713.28;;;-0.22;100.00
61018;BME280;48171;51.550;5.434;2023-02-15T05:44:03;102720.38;;;-0.19;100.00
61018;BME280;48171;51.550;5.434;2023-02-15T05:46:28;102716.97;;;-0.18;100.00
61018;BME280;48171;51.550;5.434;2023-02-15T05:48:53;102720.59;;;-0.16;100.00
61018;BME280;48171;51.550;5.434;2023-02-15T05:51:19;102724.06;;;-0.15;100.00
61018;BME280;48171;51.550;5.434;2023-02-15T05:53:44;102715.28;;;-0.17;100.00
61018;BME280;48171;51.550;5.434;2023-02-15T05:56:11;102715.47;;;-0.14;100.00
61018;BME280;48171;51.550;5.434;2023-02-15T05:58:39;102713.56;;;-0.17;100.00
61018;BME280;48171;51.550;5.434;2023-02-15T06:01:17;102717.06;;;-0.16;100.00
61018;BME280;48171;51.550;5.434;2023-02-15T06:03:43;102715.66;;;-0.25;100.00
61018;BME280;48171;51.550;5.434;2023-02-15T06:06:08;102723.94;;;-0.30;100.00
61018;BME280;48171;51.550;5.434;2023-02-15T06:08:35;102722.94;;;-0.32;100.00
61018;BME280;48171;51.550;5.434;2023-02-15T06:11:01;102722.72;;;-0.35;100.00
61018;BME280;48171;51.550;5.434;2023-02-15T06:13:26;102731.53;;;-0.33;100.00
61018;BME280;48171;51.550;5.434;2023-02-15T06:15:52;102732.28;;;-0.34;100.00
61018;BME280;48171;51.550;5.434;2023-02-15T06:18:17;102729.03;;;-0.32;100.00
61018;BME280;48171;51.550;5.434;2023-02-15T06:20:45;102728.94;;;-0.33;100.00
61018;BME280;48171;51.550;5.434;2023-02-15T06:23:10;102729.03;;;-0.32;100.00
61018;BME280;48171;51.550;5.434;2023-02-15T06:25:35;102728.94;;;-0.33;100.00
61018;BME280;48171;51.550;5.434;2023-02-15T06:28:01;102731.28;;;-0.36;100.00
61018;BME280;48171;51.550;5.434;2023-02-15T06:30:26;102731.88;;;-0.41;100.00
61018;BME280;48171;51.550;5.434;2023-02-15T06:32:51;102721.91;;;-0.48;100.00
61018;BME280;48171;51.550;5.434;2023-02-15T06:35:17;102733.41;;;-0.44;100.00
61018;BME280;48171;51.550;5.434;2023-02-15T06:37:45;102726.28;;;-0.47;100.00
61018;BME280;48171;51.550;5.434;2023-02-15T06:40:10;102723.59;;;-0.48;100.00
61018;BME280;48171;51.550;5.434;2023-02-15T06:42:36;102732.16;;;-0.49;100.00
61018;BME280;48171;51.550;5.434;2023-02-15T06:45:01;102716.06;;;-0.57;100.00
61018;BME280;48171;51.550;5.434;2023-02-15T06:47:26;102724.06;;;-0.54;100.00
61018;BME280;48171;51.550;5.434;2023-02-15T06:49:52;102714.28;;;-0.58;100.00
61018;BME280;48171;51.550;5.434;2023-02-15T06:52:17;102714.16;;;-0.59;100.00
61018;BME280;48171;51.550;5.434;2023-02-15T06:54:42;102713.16;;;-0.62;100.00
61018;BME280;48171;51.550;5.434;2023-02-15T06:57:08;102713.03;;;-0.63;100.00
61018;BME280;48171;51.550;5.434;2023-02-15T06:59:34;102705.97;;;-0.66;100.00
61018;BME280;48171;51.550;5.434;2023-02-15T07:01:59;102695.28;;;-0.70;100.00
61018;BME280;48171;51.550;5.434;2023-02-15T07:04:25;102697.88;;;-0.70;100.00
61018;BME280;48171;51.550;5.434;2023-02-15T07:06:50;102699.44;;;-0.72;100.00
61018;BME280;48171;51.550;5.434;2023-02-15T07:09:15;102698.53;;;-0.73;100.00
61018;BME280;48171;51.550;5.434;2023-02-15T07:11:41;102695.94;;;-0.73;100.00
61018;BME280;48171;51.550;5.434;2023-02-15T07:14:25;102692.66;;;-0.70;100.00
61018;BME280;48171;51.550;5.434;2023-02-15T07:16:50;102691.16;;;-0.67;100.00
61018;BME280;48171;51.550;5.434;2023-02-15T07:19:15;102695.09;;;-0.60;100.00
61018;BME280;48171;51.550;5.434;2023-02-15T07:21:41;102689.91;;;-0.60;100.00
61018;BME280;48171;51.550;5.434;2023-02-15T07:24:06;102684.25;;;-0.54;100.00
61018;BME280;48171;51.550;5.434;2023-02-15T07:26:32;102699.41;;;-0.47;100.00
61018;BME280;48171;51.550;5.434;2023-02-15T07:28:58;102691.75;;;-0.46;100.00
61018;BME280;48171;51.550;5.434;2023-02-15T07:31:23;102691.16;;;-0.42;100.00
61018;BME280;48171;51.550;5.434;2023-02-15T07:33:48;102688.75;;;-0.38;100.00
61018;BME280;48171;51.550;5.434;2023-02-15T07:36:14;102691.66;;;-0.34;100.00
61018;BME280;48171;51.550;5.434;2023-02-15T07:38:40;102685.88;;;-0.30;100.00
61018;BME280;48171;51.550;5.434;2023-02-15T07:41:11;102691.38;;;-0.25;100.00
61018;BME280;48171;51.550;5.434;2023-02-15T07:43:42;102684.69;;;-0.22;100.00
61018;BME280;48171;51.550;5.434;2023-02-15T07:46:10;102686.81;;;-0.16;100.00
61018;BME280;48171;51.550;5.434;2023-02-15T07:48:37;102690.59;;;-0.11;100.00
61018;BME280;48171;51.550;5.434;2023-02-15T07:51:04;102687.28;;;-0.08;100.00
61018;BME280;48171;51.550;5.434;2023-02-15T07:53:34;102678.72;;;-0.07;100.00
61018;BME280;48171;51.550;5.434;2023-02-15T07:56:01;102686.31;;;0.03;100.00
61018;BME280;48171;51.550;5.434;2023-02-15T07:58:27;102672.63;;;0.06;100.00
61018;BME280;48171;51.550;5.434;2023-02-15T08:01:11;102683.72;;;0.16;100.00
61018;BME280;48171;51.550;5.434;2023-02-15T08:03:36;102672.63;;;0.19;100.00
61018;BME280;48171;51.550;5.434;2023-02-15T08:06:02;102674.50;;;0.22;100.00
61018;BME280;48171;51.550;5.434;2023-02-15T08:08:27;102669.53;;;0.25;100.00
61018;BME280;48171;51.550;5.434;2023-02-15T08:13:48;102669.72;;;0.28;100.00
61018;BME280;48171;51.550;5.434;2023-02-15T08:16:32;102688.63;;;0.38;100.00
61018;BME280;48171;51.550;5.434;2023-02-15T08:19:00;102674.09;;;0.42;100.00
61018;BME280;48171;51.550;5.434;2023-02-15T08:21:28;102682.38;;;0.50;100.00
61018;BME280;48171;51.550;5.434;2023-02-15T08:23:54;102677.47;;;0.54;100.00
61018;BME280;48171;51.550;5.434;2023-02-15T08:26:21;102679.56;;;0.60;100.00
61018;BME280;48171;51.550;5.434;2023-02-15T08:28:46;102676.44;;;0.66;100.00
61018;BME280;48171;51.550;5.434;2023-02-15T08:31:13;102672.34;;;0.69;100.00
61018;BME280;48171;51.550;5.434;2023-02-15T08:33:40;102672.00;;;0.78;100.00
61018;BME280;48171;51.550;5.434;2023-02-15T08:36:12;102675.19;;;0.87;100.00
61018;BME280;48171;51.550;5.434;2023-02-15T08:38:38;102667.78;;;0.93;100.00
61018;BME280;48171;51.550;5.434;2023-02-15T08:41:18;102665.72;;;1.03;100.00
61018;BME280;48171;51.550;5.434;2023-02-15T08:43:46;102662.59;;;1.08;100.00
61018;BME280;48171;51.550;5.434;2023-02-15T08:46:13;102658.66;;;1.15;100.00
61018;BME280;48171;51.550;5.434;2023-02-15T08:48:39;102663.59;;;1.25;100.00
61018;BME280;48171;51.550;5.434;2023-02-15T08:51:07;102656.28;;;1.33;100.00
61018;BME280;48171;51.550;5.434;2023-02-15T08:53:33;102650.63;;;1.40;100.00
61018;BME280;48171;51.550;5.434;2023-02-15T08:55:59;102663.28;;;1.49;100.00
61018;BME280;48171;51.550;5.434;2023-02-15T08:58:25;102650.63;;;1.55;100.00
61018;BME280;48171;51.550;5.434;2023-02-15T09:00:51;102647.59;;;1.62;100.00
61018;BME280;48171;51.550;5.434;2023-02-15T09:03:16;102653.25;;;1.70;100.00
61018;BME280;48171;51.550;5.434;2023-02-15T09:05:41;102646.69;;;1.76;100.00
61018;BME280;48171;51.550;5.434;2023-02-15T09:08:07;102650.44;;;1.82;100.00
61018;BME280;48171;51.550;5.434;2023-02-15T09:10:32;102650.78;;;1.88;100.00
61018;BME280;48171;51.550;5.434;2023-02-15T09:12:57;102652.84;;;1.93;100.00
61018;BME280;48171;51.550;5.434;2023-02-15T09:15:23;102644.59;;;2.00;100.00
61018;BME280;48171;51.550;5.434;2023-02-15T09:17:48;102642.44;;;2.08;100.00
61018;BME280;48171;51.550;5.434;2023-02-15T09:20:13;102635.00;;;2.16;100.00
61018;BME280;48171;51.550;5.434;2023-02-15T09:22:38;102629.34;;;2.23;100.00
61018;BME280;48171;51.550;5.434;2023-02-15T09:25:04;102629.78;;;2.31;100.00
61018;BME280;48171;51.550;5.434;2023-02-15T09:27:29;102624.91;;;2.37;100.00
61018;BME280;48171;51.550;5.434;2023-02-15T09:29:55;102620.16;;;2.46;100.00
61018;BME280;48171;51.550;5.434;2023-02-15T09:32:20;102619.94;;;2.58;100.00
61018;BME280;48171;51.550;5.434;2023-02-15T09:34:47;102620.59;;;2.70;100.00
61018;BME280;48171;51.550;5.434;2023-02-15T09:37:12;102600.88;;;2.75;100.00
61018;BME280;48171;51.550;5.434;2023-02-15T09:39:40;102619.94;;;2.91;100.00
61018;BME280;48171;51.550;5.434;2023-02-15T09:42:39;102618.00;;;3.03;100.00
61018;BME280;48171;51.550;5.434;2023-02-15T09:48:08;102613.22;;;3.29;100.00
61018;BME280;48171;51.550;5.434;2023-02-15T10:07:46;102628.84;;;3.97;100.00
61018;BME280;48171;51.550;5.434;2023-02-15T10:09:55;102626.59;;;4.05;100.00
61018;BME280;48171;51.550;5.434;2023-02-15T10:21:02;102631.59;;;4.36;100.00
61018;BME280;48171;51.550;5.434;2023-02-15T10:26:22;102639.03;;;4.65;100.00
61018;BME280;48171;51.550;5.434;2023-02-15T10:29:00;102632.41;;;4.73;100.00
61018;BME280;48171;51.550;5.434;2023-02-15T10:31:56;102634.75;;;4.86;100.00
61018;BME280;48171;51.550;5.434;2023-02-15T10:34:34;102632.69;;;4.98;100.00
61018;BME280;48171;51.550;5.434;2023-02-15T10:40:14;102625.09;;;5.24;100.00
61018;BME280;48171;51.550;5.434;2023-02-15T10:45:28;102624.09;;;5.41;100.00
61018;BME280;48171;51.550;5.434;2023-02-15T10:48:16;102619.16;;;5.49;100.00
61018;BME280;48171;51.550;5.434;2023-02-15T10:56:17;102615.97;;;5.77;100.00
61018;BME280;48171;51.550;5.434;2023-02-15T11:07:04;102607.56;;;6.28;99.03
61018;BME280;48171;51.550;5.434;2023-02-15T11:09:41;102595.00;;;6.44;98.79
61018;BME280;48171;51.550;5.434;2023-02-15T11:12:11;102599.97;;;6.58;95.04
61018;BME280;48171;51.550;5.434;2023-02-15T11:14:45;102599.56;;;6.72;93.81
61018;BME280;48171;51.550;5.434;2023-02-15T11:17:18;102599.97;;;6.82;92.26
61018;BME280;48171;51.550;5.434;2023-02-15T11:19:58;102590.97;;;7.00;90.88
61018;BME280;48171;51.550;5.434;2023-02-15T11:22:28;102599.00;;;7.05;91.34
61018;BME280;48171;51.550;5.434;2023-02-15T11:24:57;102601.84;;;7.11;88.92
61018;BME280;48171;51.550;5.434;2023-02-15T11:27:33;102589.00;;;7.18;89.83
61018;BME280;48171;51.550;5.434;2023-02-15T11:30:12;102587.50;;;7.27;89.13
61018;BME280;48171;51.550;5.434;2023-02-15T11:32:46;102579.00;;;7.34;91.19
61018;BME280;48171;51.550;5.434;2023-02-15T11:37:44;102572.34;;;7.44;87.75
61018;BME280;48171;51.550;5.434;2023-02-15T11:40:24;102555.91;;;7.51;90.79
61018;BME280;48171;51.550;5.434;2023-02-15T11:42:56;102558.91;;;7.61;89.97
61018;BME280;48171;51.550;5.434;2023-02-15T11:47:47;102552.44;;;7.79;90.80
61018;BME280;48171;51.550;5.434;2023-02-15T11:50:20;102548.16;;;7.82;90.38
61018;BME280;48171;51.550;5.434;2023-02-15T11:52:58;102546.63;;;7.89;88.52
61018;BME280;48171;51.550;5.434;2023-02-15T11:55:24;102544.16;;;7.94;88.11
61018;BME280;48171;51.550;5.434;2023-02-15T11:57:54;102546.16;;;8.02;86.29
61018;BME280;48171;51.550;5.434;2023-02-15T12:00:34;102542.84;;;8.10;85.33
61018;BME280;48171;51.550;5.434;2023-02-15T12:03:07;102531.75;;;8.18;82.88
61018;BME280;48171;51.550;5.434;2023-02-15T12:05:37;102545.22;;;8.29;86.00
61018;BME280;48171;51.550;5.434;2023-02-15T12:08:13;102538.19;;;8.30;86.30
61018;BME280;48171;51.550;5.434;2023-02-15T12:10:46;102538.31;;;8.33;85.22
61018;BME280;48171;51.550;5.434;2023-02-15T12:13:20;102536.66;;;8.36;84.36
61018;BME280;48171;51.550;5.434;2023-02-15T12:15:52;102523.72;;;8.43;84.99
61018;BME280;48171;51.550;5.434;2023-02-15T12:18:41;102521.78;;;8.38;86.17
61018;BME280;48171;51.550;5.434;2023-02-15T12:21:11;102522.00;;;8.45;83.31
61018;BME280;48171;51.550;5.434;2023-02-15T12:23:46;102509.78;;;8.47;84.97
61018;BME280;48171;51.550;5.434;2023-02-15T12:26:13;102510.72;;;8.49;82.15
61018;BME280;48171;51.550;5.434;2023-02-15T12:28:41;102516.09;;;8.53;83.80
61018;BME280;48171;51.550;5.434;2023-02-15T12:31:20;102508.19;;;8.53;86.87
61018;BME280;48171;51.550;5.434;2023-02-15T12:33:46;102505.50;;;8.52;86.05
61018;BME280;48171;51.550;5.434;2023-02-15T12:36:27;102502.75;;;8.47;87.11
61018;BME280;48171;51.550;5.434;2023-02-15T12:39:26;102500.00;;;8.43;84.06
61018;BME280;48171;51.550;5.434;2023-02-15T12:44:23;102502.25;;;8.60;84.92
61018;BME280;48171;51.550;5.434;2023-02-15T12:49:43;102497.31;;;8.73;85.50
61018;BME280;48171;51.550;5.434;2023-02-15T12:52:24;102494.09;;;8.85;86.05
61018;BME280;48171;51.550;5.434;2023-02-15T12:54:50;102492.50;;;8.90;87.12
61018;BME280;48171;51.550;5.434;2023-02-15T12:59:59;102480.66;;;9.09;79.00
61018;BME280;48171;51.550;5.434;2023-02-15T13:02:29;102475.75;;;9.23;77.30
61018;BME280;48171;51.550;5.434;2023-02-15T13:04:56;102472.47;;;9.31;77.63
61018;BME280;48171;51.550;5.434;2023-02-15T13:07:25;102476.09;;;9.36;77.96
61018;BME280;48171;51.550;5.434;2023-02-15T13:09:54;102464.66;;;9.36;78.54
61018;BME280;48171;51.550;5.434;2023-02-15T13:12:25;102466.72;;;9.49;77.04
61018;BME280;48171;51.550;5.434;2023-02-15T13:15:02;102459.81;;;9.54;76.58
61018;BME280;48171;51.550;5.434;2023-02-15T13:17:31;102457.31;;;9.60;77.70
61018;BME280;48171;51.550;5.434;2023-02-15T13:20:05;102440.50;;;9.57;76.79
61018;BME280;48171;51.550;5.434;2023-02-15T13:22:41;102456.75;;;9.75;76.52
61018;BME280;48171;51.550;5.434;2023-02-15T13:25:25;102425.72;;;9.64;76.60
61018;BME280;48171;51.550;5.434;2023-02-15T13:27:56;102449.91;;;9.84;77.45
61018;BME280;48171;51.550;5.434;2023-02-15T13:30:31;102440.31;;;9.86;77.30
61018;BME280;48171;51.550;5.434;2023-02-15T13:33:06;102444.78;;;9.90;73.96
61018;BME280;48171;51.550;5.434;2023-02-15T13:35:54;102433.25;;;9.86;75.08
61018;BME280;48171;51.550;5.434;2023-02-15T13:40:56;102428.69;;;9.79;75.62
61018;BME280;48171;51.550;5.434;2023-02-15T13:49:08;102436.91;;;9.93;75.03
61018;BME280;48171;51.550;5.434;2023-02-15T13:51:58;102436.03;;;9.92;77.42
61018;BME280;48171;51.550;5.434;2023-02-15T13:59:42;102426.56;;;10.04;74.17
61018;BME280;48171;51.550;5.434;2023-02-15T14:08:11;102400.19;;;10.05;74.58
61018;BME280;48171;51.550;5.434;2023-02-15T14:10:19;102443.00;;;10.31;74.44
61018;BME280;48171;51.550;5.434;2023-02-15T14:15:42;102441.25;;;10.30;73.14
61018;BME280;48171;51.550;5.434;2023-02-15T14:18:18;102436.78;;;10.29;73.07
61018;BME280;48171;51.550;5.434;2023-02-15T14:21:08;102436.63;;;10.21;74.61
61018;BME280;48171;51.550;5.434;2023-02-15T14:31:41;102446.06;;;10.09;74.43
61018;BME280;48171;51.550;5.434;2023-02-15T14:34:23;102435.38;;;10.02;73.25
61018;BME280;48171;51.550;5.434;2023-02-15T14:36:52;102405.97;;;9.86;72.25
61018;BME280;48171;51.550;5.434;2023-02-15T14:39:38;102447.91;;;10.13;72.96
61018;BME280;48171;51.550;5.434;2023-02-15T14:45:15;102447.97;;;10.17;72.96
61018;BME280;48171;51.550;5.434;2023-02-15T14:47:55;102440.91;;;10.15;74.22
61018;BME280;48171;51.550;5.434;2023-02-15T15:01:33;102425.75;;;10.08;73.42
61018;BME280;48171;51.550;5.434;2023-02-15T15:04:06;102439.94;;;10.11;72.90
61018;BME280;48171;51.550;5.434;2023-02-15T15:06:36;102439.06;;;10.11;74.06
61018;BME280;48171;51.550;5.434;2023-02-15T15:09:41;102445.16;;;10.08;73.87